Time;durP1;ratioP1;P1;durP2;ratioP2;P2;SDS_P1;SDS_P2;PMS_P1;PMS_P2;Temp;Humidity;BMP_temperature;BMP_pressure;BME280_temperature;BME280_humidity;BME280_pressure;Samples;Min_cycle;Max_cycle;Signal;HPM_P1;HPM_P2
2023/12/16 00:00:51;;;;;;;86.03;40.17;;;2.00;99.90;;;;;;5049120;28;20037;-49
2023/12/16 00:03:17;;;;;;;92.07;41.25;;;2.00;51.10;;;;;;5048707;28;20765;-48
2023/12/16 00:05:42;;;;;;;87.88;41.67;;;2.00;99.90;;;;;;5048770;28;20071;-53
2023/12/16 00:08:08;;;;;;;92.70;42.63;;;1.90;99.90;;;;;;5048741;28;20060;-49
2023/12/16 00:10:34;;;;;;;88.22;42.47;;;1.90;1.00;;;;;;5048186;28;20029;-50
2023/12/16 00:12:59;;;;;;;87.15;41.17;;;1.90;1.00;;;;;;5048980;28;20086;-52
2023/12/16 00:15:25;;;;;;;93.28;43.65;;;1.90;1.00;;;;;;5048823;28;20665;-55
2023/12/16 00:17:51;;;;;;;90.07;41.63;;;1.90;1.00;;;;;;5049480;28;20075;-50
2023/12/16 00:20:16;;;;;;;90.80;43.28;;;1.90;1.00;;;;;;5049001;28;20033;-49
2023/12/16 00:22:42;;;;;;;84.97;40.65;;;1.90;94.70;;;;;;5048607;28;20032;-50
2023/12/16 00:25:09;;;;;;;90.40;41.00;;;1.90;34.60;;;;;;5048450;28;20116;-48
2023/12/16 00:27:35;;;;;;;83.60;40.17;;;1.90;99.90;;;;;;5048384;28;20793;-48
2023/12/16 00:30:02;;;;;;;81.72;40.25;;;1.90;1.00;;;;;;5048156;28;20037;-51
2023/12/16 00:32:27;;;;;;;83.40;39.35;;;1.90;27.00;;;;;;5048985;28;20082;-51
2023/12/16 00:34:53;;;;;;;80.97;40.13;;;2.00;99.90;;;;;;5048505;28;20435;-48
2023/12/16 14:49:55;;;;;;;98.90;41.85;;;4.60;99.90;;;;;;5083005;28;20452;-49
2023/12/16 14:52:21;;;;;;;104.15;48.40;;;4.60;99.90;;;;;;5083410;28;20109;-49
2023/12/16 14:54:47;;;;;;;101.15;49.15;;;4.60;99.90;;;;;;5083304;28;20375;-46
2023/12/16 14:57:12;;;;;;;102.20;49.58;;;4.50;99.90;;;;;;5083547;28;20459;-47
2023/12/16 14:59:38;;;;;;;113.95;51.47;;;4.60;99.90;;;;;;5083011;28;20028;-54
2023/12/16 15:02:04;;;;;;;104.22;52.67;;;4.60;99.90;;;;;;5082946;28;20021;-48
2023/12/16 15:04:29;;;;;;;106.40;50.60;;;4.60;99.90;;;;;;5083425;28;20600;-52
2023/12/16 15:06:58;;;;;;;114.40;55.80;;;4.60;99.90;;;;;;5083496;28;20409;-51
2023/12/16 15:09:28;;;;;;;114.38;55.05;;;4.60;99.90;;;;;;5083403;28;20040;-54
2023/12/16 15:11:54;;;;;;;105.97;53.35;;;4.60;99.90;;;;;;5082414;28;20032;-55
2023/12/16 15:14:20;;;;;;;109.00;53.33;;;4.60;99.90;;;;;;5081962;28;20027;-52
2023/12/16 15:16:46;;;;;;;120.15;56.08;;;4.60;99.90;;;;;;5081557;28;20032;-49
2023/12/16 15:19:12;;;;;;;127.40;56.15;;;4.60;99.90;;;;;;5081788;28;20024;-48
2023/12/16 15:21:41;;;;;;;123.47;60.05;;;4.60;99.90;;;;;;5081802;28;20025;-46
2023/12/16 15:24:07;;;;;;;112.55;53.90;;;4.60;99.90;;;;;;5081355;28;20522;-53
2023/12/16 15:26:33;;;;;;;112.25;56.13;;;4.60;99.90;;;;;;5081730;28;20361;-49
2023/12/16 15:28:59;;;;;;;109.60;54.85;;;4.60;99.90;;;;;;5082336;28;20035;-51
2023/12/16 15:31:25;;;;;;;111.45;53.75;;;4.50;99.90;;;;;;5082851;28;20036;-48
2023/12/16 15:33:51;;;;;;;108.88;53.22;;;4.60;99.90;;;;;;5082898;28;20115;-50
2023/12/16 15:36:17;;;;;;;105.38;51.95;;;4.60;99.90;;;;;;5082982;28;20074;-57
2023/12/16 15:38:43;;;;;;;107.55;53.30;;;4.60;99.90;;;;;;5082061;28;20072;-51
2023/12/16 15:41:13;;;;;;;107.70;52.13;;;4.60;99.90;;;;;;5082888;28;20057;-54
2023/12/16 15:43:39;;;;;;;104.40;50.70;;;4.60;99.90;;;;;;5082314;28;20754;-49
2023/12/16 15:46:04;;;;;;;103.00;51.35;;;4.60;99.90;;;;;;5081517;28;20039;-51
2023/12/16 15:48:30;;;;;;;100.95;50.45;;;4.70;99.90;;;;;;5082574;28;20116;-48
2023/12/16 15:50:56;;;;;;;115.22;53.17;;;4.60;99.90;;;;;;5082779;28;20031;-51
2023/12/16 15:53:21;;;;;;;98.20;47.50;;;4.70;99.90;;;;;;5082630;28;20585;-52
2023/12/16 15:55:47;;;;;;;101.55;47.47;;;4.70;99.90;;;;;;5082448;28;20230;-55
2023/12/16 15:58:12;;;;;;;88.60;43.70;;;4.70;99.90;;;;;;5082522;28;20020;-54
2023/12/16 16:00:38;;;;;;;94.78;46.33;;;4.60;99.90;;;;;;5072278;28;20379;-53
2023/12/16 16:03:03;;;;;;;98.45;47.13;;;4.70;99.90;;;;;;5068784;28;20028;-59
2023/12/16 16:05:29;;;;;;;100.68;45.85;;;4.70;99.90;;;;;;5069069;28;20036;-47
2023/12/16 16:07:55;;;;;;;93.53;44.33;;;4.70;99.90;;;;;;5068450;28;20036;-57
2023/12/16 16:10:21;;;;;;;84.28;41.67;;;4.70;99.90;;;;;;5068988;28;20466;-50
2023/12/16 16:12:47;;;;;;;88.22;43.17;;;4.70;99.90;;;;;;5068564;28;20035;-53
2023/12/16 16:15:13;;;;;;;88.93;44.28;;;4.70;99.90;;;;;;5071760;28;20033;-52
2023/12/16 16:17:38;;;;;;;87.10;42.38;;;4.70;99.90;;;;;;5070390;28;20369;-54
2023/12/16 16:20:07;;;;;;;90.63;42.92;;;4.70;99.90;;;;;;5068956;28;20025;-51
2023/12/16 16:22:33;;;;;;;90.20;43.97;;;4.70;99.90;;;;;;5068958;28;20039;-50
2023/12/16 16:24:59;;;;;;;90.22;44.30;;;4.70;99.90;;;;;;5069474;28;20136;-48
2023/12/16 16:27:24;;;;;;;99.22;45.17;;;4.70;99.90;;;;;;5042883;28;20756;-52
2023/12/16 16:29:51;;;;;;;97.95;46.72;;;4.70;99.90;;;;;;5029441;28;20408;-50
2023/12/16 16:32:16;;;;;;;99.20;48.15;;;4.70;99.90;;;;;;5038363;28;20037;-57
2023/12/16 16:34:42;;;;;;;103.82;49.78;;;4.70;99.90;;;;;;5049179;28;20032;-49
2023/12/16 16:37:08;;;;;;;102.57;47.33;;;4.70;99.90;;;;;;5049944;28;20126;-51
2023/12/16 16:39:34;;;;;;;108.30;49.08;;;4.70;99.90;;;;;;5049285;28;20036;-54
2023/12/16 16:42:03;;;;;;;101.10;45.63;;;4.70;99.90;;;;;;5048198;28;20033;-52
2023/12/16 16:44:29;;;;;;;99.97;45.50;;;4.60;99.90;;;;;;5048044;28;20040;-47
2023/12/16 16:46:55;;;;;;;97.10;46.17;;;4.70;99.90;;;;;;5047645;28;20032;-51
2023/12/16 16:49:20;;;;;;;93.30;44.60;;;4.70;99.90;;;;;;5047543;28;20053;-49
2023/12/16 16:51:46;;;;;;;89.25;42.58;;;4.70;99.90;;;;;;5047859;28;20105;-49
2023/12/16 16:54:15;;;;;;;81.10;40.58;;;4.70;99.90;;;;;;5047405;28;20032;-55
2023/12/16 16:56:41;;;;;;;86.18;39.85;;;4.70;99.90;;;;;;5046877;28;20555;-52
2023/12/16 16:59:07;;;;;;;85.78;40.85;;;4.70;99.90;;;;;;5047535;28;20031;-53
2023/12/16 17:01:32;;;;;;;79.30;39.35;;;4.70;99.90;;;;;;5055525;28;20029;-56
2023/12/16 17:03:58;;;;;;;78.10;40.45;;;4.70;99.90;;;;;;5057143;28;20534;-50
2023/12/16 17:06:24;;;;;;;83.78;38.13;;;4.70;99.90;;;;;;5056332;28;20025;-53
2023/12/16 17:08:50;;;;;;;82.03;40.33;;;4.70;99.90;;;;;;5057476;28;20498;-55
2023/12/16 17:11:18;;;;;;;97.15;45.28;;;4.80;99.90;;;;;;5055304;28;20025;-51
2023/12/16 17:13:44;;;;;;;85.05;42.70;;;4.80;99.90;;;;;;5055819;28;20483;-53
2023/12/16 17:16:12;;;;;;;83.05;43.72;;;4.70;99.90;;;;;;5058271;28;20035;-57
2023/12/16 17:18:38;;;;;;;96.70;43.33;;;4.80;99.90;;;;;;5056776;28;20032;-55
2023/12/16 17:21:05;;;;;;;82.82;40.97;;;4.70;99.90;;;;;;5055150;28;20032;-55
2023/12/16 17:23:32;;;;;;;85.30;38.60;;;4.70;99.90;;;;;;5053062;28;20036;-55
2023/12/16 17:26:02;;;;;;;79.32;39.00;;;4.70;99.90;;;;;;5056440;28;20101;-52
2023/12/16 17:28:31;;;;;;;82.05;41.80;;;4.70;99.90;;;;;;5047113;28;20040;-54
2023/12/16 17:31:00;;;;;;;90.28;44.15;;;4.80;99.90;;;;;;5053789;28;20044;-47
2023/12/16 17:33:27;;;;;;;91.20;44.25;;;4.80;99.90;;;;;;5052476;28;20063;-50
2023/12/16 17:35:53;;;;;;;89.43;44.33;;;4.80;99.90;;;;;;5056082;28;20060;-48
2023/12/16 17:38:19;;;;;;;88.18;42.70;;;4.80;99.90;;;;;;5056566;28;20459;-52
2023/12/16 17:40:45;;;;;;;85.22;41.15;;;4.80;99.90;;;;;;5056848;28;20535;-48
2023/12/16 17:43:10;;;;;;;82.93;40.75;;;4.80;99.90;;;;;;5056296;28;20063;-57
2023/12/16 17:45:36;;;;;;;80.72;41.05;;;4.80;66.30;;;;;;5055842;28;20385;-51
2023/12/16 17:48:02;;;;;;;85.32;40.00;;;4.80;1.00;;;;;;5057255;28;20055;-54
2023/12/16 17:50:27;;;;;;;79.25;39.53;;;4.80;1.00;;;;;;5057601;28;20029;-55
2023/12/16 17:52:53;;;;;;;85.60;41.47;;;4.90;1.00;;;;;;5056929;28;20025;-49
2023/12/16 17:55:19;;;;;;;82.32;40.22;;;4.80;99.90;;;;;;5057985;28;20056;-54
2023/12/16 17:57:48;;;;;;;88.32;40.28;;;4.80;99.90;;;;;;5056239;28;20494;-52
2023/12/16 18:00:14;;;;;;;90.15;41.40;;;4.80;99.90;;;;;;5057039;28;20020;-55
2023/12/16 18:02:41;;;;;;;86.45;41.85;;;4.90;1.00;;;;;;5058498;28;20063;-59
2023/12/16 18:05:10;;;;;;;83.50;40.05;;;4.90;1.00;;;;;;5058583;28;20037;-55
2023/12/16 18:07:36;;;;;;;88.78;41.75;;;4.90;99.90;;;;;;5058070;28;20105;-50
2023/12/16 18:10:03;;;;;;;89.40;41.25;;;4.90;99.90;;;;;;5059125;28;20631;-45
2023/12/16 18:12:28;;;;;;;;;;;4.90;1.00;;;;;;5058953;28;20032;-53
2023/12/16 18:14:54;;;;;;;73.85;35.58;;;4.90;99.90;;;;;;5055658;28;19908;-54
2023/12/16 18:17:20;;;;;;;79.25;37.38;;;4.90;1.00;;;;;;5057214;28;20048;-56
2023/12/16 18:19:45;;;;;;;85.25;37.28;;;4.90;1.00;;;;;;5054761;28;20363;-55
2023/12/16 18:22:11;;;;;;;85.88;40.28;;;4.90;1.00;;;;;;5055561;28;20499;-49
2023/12/16 18:24:37;;;;;;;90.72;44.42;;;4.90;1.00;;;;;;5058596;28;20033;-52
2023/12/16 18:27:02;;;;;;;96.82;42.72;;;4.90;1.00;;;;;;5058492;28;20028;-55
2023/12/16 18:29:28;;;;;;;82.78;39.35;;;4.90;1.00;;;;;;5060205;28;20029;-56
2023/12/16 18:31:54;;;;;;;80.20;35.97;;;4.90;99.90;;;;;;5060058;28;20060;-50
2023/12/16 18:34:20;;;;;;;71.45;35.90;;;4.90;99.90;;;;;;5059371;28;20089;-57
2023/12/16 18:36:46;;;;;;;73.43;35.03;;;4.90;99.90;;;;;;5058855;28;20032;-50
2023/12/16 18:39:12;;;;;;;79.30;37.38;;;5.00;1.00;;;;;;5055985;28;20028;-53
2023/12/16 18:41:38;;;;;;;73.55;36.25;;;4.90;1.00;;;;;;5055695;28;20074;-50
2023/12/16 18:44:04;;;;;;;81.63;40.53;;;4.90;1.00;;;;;;5056962;28;20068;-49
2023/12/16 18:46:30;;;;;;;91.55;42.22;;;4.90;1.00;;;;;;5055575;28;20036;-51
2023/12/16 18:48:56;;;;;;;94.60;44.83;;;4.90;1.00;;;;;;5054984;28;20475;-50
2023/12/16 18:51:21;;;;;;;96.13;44.15;;;4.90;1.00;;;;;;5056646;28;20063;-56
2023/12/16 18:53:48;;;;;;;95.35;45.80;;;4.90;88.00;;;;;;5054267;28;20467;-53
2023/12/16 18:56:14;;;;;;;88.93;44.28;;;4.90;1.00;;;;;;5055393;28;20480;-53
2023/12/16 18:58:40;;;;;;;97.55;43.45;;;4.90;1.00;;;;;;5055701;28;20056;-55
2023/12/16 19:01:06;;;;;;;92.07;45.58;;;4.80;52.50;;;;;;5054280;28;20584;-49
2023/12/16 19:03:32;;;;;;;99.25;46.40;;;4.80;74.00;;;;;;5055555;28;20028;-50
2023/12/16 19:05:57;;;;;;;88.78;43.17;;;4.80;1.00;;;;;;5055397;28;20025;-48
2023/12/16 19:08:23;;;;;;;90.88;40.85;;;4.80;1.00;;;;;;5053986;28;20124;-52
2023/12/16 19:10:49;;;;;;;89.65;41.88;;;4.80;1.00;;;;;;5054395;28;20063;-53
2023/12/16 19:13:16;;;;;;;89.13;42.13;;;4.70;1.00;;;;;;5055375;28;20446;-54
2023/12/16 19:15:42;;;;;;;93.68;42.80;;;4.70;1.00;;;;;;5053781;28;20112;-53
2023/12/16 19:18:07;;;;;;;87.32;41.63;;;4.70;1.00;;;;;;5056294;28;20111;-55
2023/12/16 19:20:33;;;;;;;98.18;43.10;;;4.60;1.00;;;;;;5054663;28;20028;-50
2023/12/16 19:22:58;;;;;;;94.47;46.55;;;4.60;1.00;;;;;;5054283;28;20549;-48
2023/12/16 19:25:24;;;;;;;101.43;45.92;;;4.60;44.80;;;;;;5055859;28;20523;-54
2023/12/16 19:27:50;;;;;;;99.32;45.72;;;4.50;99.90;;;;;;5053944;28;20021;-54
2023/12/16 19:30:16;;;;;;;104.78;49.80;;;4.40;1.00;;;;;;5054697;28;20029;-51
2023/12/16 19:32:41;;;;;;;107.35;49.05;;;4.40;1.00;;;;;;5055445;28;20067;-53
2023/12/16 19:35:07;;;;;;;102.57;44.95;;;4.40;22.10;;;;;;5054968;28;20480;-56
2023/12/16 19:37:33;;;;;;;79.35;43.10;;;4.30;99.90;;;;;;5059046;28;20029;-53
2023/12/16 19:39:59;;;;;;;73.97;38.20;;;4.30;99.90;;;;;;5059349;28;20017;-48
2023/12/16 19:42:25;;;;;;;71.05;34.90;;;4.20;99.90;;;;;;5057396;28;20024;-58
2023/12/16 19:44:50;;;;;;;77.05;33.65;;;4.20;99.90;;;;;;5059438;28;20471;-48
2023/12/16 19:47:17;;;;;;;72.22;34.22;;;4.20;99.90;;;;;;5058664;28;20115;-48
2023/12/16 19:49:44;;;;;;;73.20;35.45;;;4.10;1.00;;;;;;5056012;28;20144;-46
2023/12/16 19:52:11;;;;;;;64.13;31.90;;;4.10;1.00;;;;;;5059055;28;20476;-57
2023/12/16 19:54:39;;;;;;;67.65;34.63;;;4.10;1.00;;;;;;5058311;28;20029;-58
2023/12/16 19:57:06;;;;;;;63.55;31.50;;;4.10;99.90;;;;;;5057051;28;20032;-54
2023/12/16 19:59:33;;;;;;;73.68;35.95;;;4.10;57.80;;;;;;5058889;28;20456;-51
2023/12/16 20:01:59;;;;;;;73.40;36.47;;;4.00;99.90;;;;;;5056435;28;20045;-49
2023/12/16 20:04:25;;;;;;;74.10;35.50;;;4.00;99.90;;;;;;5058393;28;20032;-47
2023/12/16 20:06:52;;;;;;;72.32;33.25;;;4.00;99.90;;;;;;5059427;28;20028;-50
2023/12/16 20:09:17;;;;;;;76.28;34.15;;;3.90;99.90;;;;;;5052715;28;20059;-49
2023/12/16 20:11:43;;;;;;;64.68;32.17;;;3.90;99.90;;;;;;5048748;28;20045;-52
2023/12/16 20:14:09;;;;;;;68.60;33.08;;;3.80;99.90;;;;;;5045677;28;20041;-48
2023/12/16 20:16:34;;;;;;;75.22;35.97;;;3.80;99.90;;;;;;5048321;28;20032;-61
2023/12/16 20:19:01;;;;;;;64.43;32.50;;;3.80;99.90;;;;;;5048813;28;20376;-55
2023/12/16 20:21:27;;;;;;;62.20;32.97;;;3.70;1.00;;;;;;5047936;28;20033;-53
2023/12/16 20:23:52;;;;;;;72.90;33.50;;;3.70;99.90;;;;;;5048214;28;20078;-50
2023/12/16 20:26:20;;;;;;;66.57;32.15;;;3.70;99.90;;;;;;5047342;28;20425;-51
2023/12/16 20:28:47;;;;;;;;;;;3.70;99.90;;;;;;5048384;28;20041;-52
2023/12/16 20:31:13;;;;;;;64.63;31.58;;;3.70;99.90;;;;;;5048357;28;19931;-49
2023/12/16 20:33:39;;;;;;;66.47;30.77;;;3.70;99.90;;;;;;5049168;28;20109;-54
2023/12/16 20:36:06;;;;;;;62.10;30.08;;;3.70;99.90;;;;;;5048395;28;20287;-52
2023/12/16 20:41:15;;;;;;;69.03;28.42;;;3.80;99.90;;;;;;5048931;28;19959;-52
2023/12/16 20:43:41;;;;;;;59.90;28.60;;;3.80;99.90;;;;;;5047668;28;20062;-56
2023/12/16 20:46:08;;;;;;;57.30;30.00;;;3.90;99.90;;;;;;5047305;28;20047;-52
2023/12/16 20:48:34;;;;;;;61.03;28.67;;;3.90;99.90;;;;;;5048678;28;20048;-54
2023/12/16 20:51:00;;;;;;;61.45;29.92;;;3.90;99.90;;;;;;5047823;28;20040;-50
2023/12/16 20:53:26;;;;;;;73.93;32.55;;;3.90;99.90;;;;;;5047842;28;20119;-57
2023/12/16 20:55:51;;;;;;;67.95;32.22;;;4.00;99.90;;;;;;5048018;28;20021;-57
2023/12/16 20:58:17;;;;;;;56.53;28.77;;;3.90;99.90;;;;;;5030145;28;20115;-56
2023/12/16 21:00:43;;;;;;;60.55;29.30;;;3.90;99.90;;;;;;5047728;28;20049;-51
2023/12/16 21:03:10;;;;;;;64.32;30.48;;;3.90;99.90;;;;;;5047992;28;20095;-53
2023/12/16 21:05:35;;;;;;;;;;;3.90;99.90;;;;;;5047646;28;20122;-52
2023/12/16 21:08:02;;;;;;;60.83;25.70;;;3.90;99.90;;;;;;5047900;28;19964;-53
2023/12/16 21:10:28;;;;;;;66.88;29.52;;;3.90;99.90;;;;;;5047525;28;20468;-54
2023/12/16 21:12:53;;;;;;;59.67;27.30;;;3.90;99.90;;;;;;5047112;28;20028;-51
2023/12/16 21:15:19;;;;;;;52.50;26.60;;;3.80;99.90;;;;;;5048328;28;20057;-53
2023/12/16 21:17:44;;;;;;;58.22;27.27;;;3.80;99.90;;;;;;5047496;28;20472;-51
2023/12/16 21:20:10;;;;;;;65.97;29.48;;;3.80;99.90;;;;;;5047552;28;20025;-52
2023/12/16 21:22:37;;;;;;;55.15;29.58;;;3.70;99.90;;;;;;5047306;28;20035;-48
2023/12/16 21:25:03;;;;;;;57.13;29.70;;;3.70;99.90;;;;;;5047197;28;20037;-48
2023/12/16 21:27:29;;;;;;;59.33;30.20;;;3.70;99.90;;;;;;5047501;28;20049;-48
2023/12/16 21:29:55;;;;;;;52.30;28.95;;;3.60;99.90;;;;;;5048369;28;20465;-58
2023/12/16 21:32:21;;;;;;;57.10;27.17;;;3.60;99.90;;;;;;5048698;28;20144;-49
2023/12/16 21:34:46;;;;;;;66.63;30.35;;;3.60;99.90;;;;;;5037653;28;20119;-53
2023/12/16 21:37:12;;;;;;;60.90;30.38;;;3.60;99.90;;;;;;5027611;28;20079;-49
2023/12/16 21:39:38;;;;;;;57.92;26.83;;;3.60;99.90;;;;;;5027775;28;20037;-51
2023/12/16 21:42:07;;;;;;;60.47;29.37;;;3.60;99.90;;;;;;5027055;28;20026;-52
2023/12/16 21:44:34;;;;;;;68.97;30.75;;;3.60;99.90;;;;;;5026856;28;20087;-54
2023/12/16 21:46:59;;;;;;;60.85;28.65;;;3.70;99.90;;;;;;5027460;28;20112;-52
2023/12/16 21:49:25;;;;;;;62.30;27.88;;;3.70;99.90;;;;;;5026976;28;20144;-52
2023/12/16 21:51:50;;;;;;;68.53;30.00;;;3.60;99.90;;;;;;5027144;28;20473;-59
2023/12/16 21:54:16;;;;;;;58.00;28.38;;;3.60;99.90;;;;;;5027067;28;20029;-49
2023/12/16 21:56:42;;;;;;;74.53;31.33;;;3.60;99.90;;;;;;5026348;28;20079;-52
2023/12/16 21:59:07;;;;;;;70.93;32.47;;;3.60;99.90;;;;;;5026045;28;20075;-54
2023/12/16 22:01:33;;;;;;;76.95;30.63;;;3.50;99.90;;;;;;5026820;28;20041;-52
2023/12/16 22:03:59;;;;;;;75.97;31.83;;;3.50;99.90;;;;;;5028004;28;20044;-57
2023/12/16 22:06:25;;;;;;;87.05;35.00;;;3.50;99.90;;;;;;5042976;28;20036;-49
2023/12/16 22:08:51;;;;;;;74.90;34.95;;;3.50;99.90;;;;;;5046475;28;20117;-55
2023/12/16 22:11:17;;;;;;;75.15;33.10;;;3.50;99.90;;;;;;5046211;28;20106;-54
2023/12/16 22:13:43;;;;;;;66.60;32.92;;;3.50;99.90;;;;;;5045777;28;20112;-52
2023/12/16 22:16:10;;;;;;;64.60;32.05;;;3.50;99.90;;;;;;5045873;28;20422;-50
2023/12/16 22:18:36;;;;;;;65.18;29.98;;;3.50;99.90;;;;;;5042166;28;20021;-53
2023/12/16 22:21:02;;;;;;;63.38;28.15;;;3.50;99.90;;;;;;5045567;28;20096;-50
2023/12/16 22:23:28;;;;;;;67.35;28.23;;;3.50;99.90;;;;;;5045648;28;20158;-49
2023/12/16 22:25:57;;;;;;;60.15;26.92;;;3.60;99.90;;;;;;5046812;28;20131;-51
2023/12/16 22:28:25;;;;;;;59.17;26.90;;;3.60;99.90;;;;;;5045778;28;20116;-56
2023/12/16 22:30:51;;;;;;;55.88;24.67;;;3.60;99.90;;;;;;5045296;28;20025;-53
2023/12/16 22:33:17;;;;;;;59.60;27.60;;;3.70;99.90;;;;;;5044344;28;20434;-49
2023/12/16 22:35:43;;;;;;;51.80;25.42;;;3.70;99.90;;;;;;5044567;28;20044;-52
2023/12/16 22:38:09;;;;;;;57.75;25.48;;;3.70;99.90;;;;;;5045821;28;20488;-54
2023/12/16 22:40:34;;;;;;;52.80;25.42;;;3.70;19.60;;;;;;5045044;28;20017;-52
2023/12/16 22:43:00;;;;;;;62.17;27.13;;;3.80;1.00;;;;;;5048684;28;20025;-48
2023/12/16 22:45:26;;;;;;;54.42;24.15;;;3.80;99.90;;;;;;5046605;28;20032;-51
2023/12/16 22:47:51;;;;;;;57.88;26.58;;;3.80;99.90;;;;;;5045497;28;20048;-48
2023/12/16 22:50:17;;;;;;;57.17;25.55;;;3.80;99.90;;;;;;5051030;28;20024;-58
2023/12/16 22:52:43;;;;;;;53.72;25.75;;;3.80;99.90;;;;;;5056320;28;20086;-53
2023/12/16 22:55:09;;;;;;;55.42;26.00;;;3.80;99.90;;;;;;5049163;28;20033;-50
2023/12/16 22:57:34;;;;;;;56.72;26.45;;;3.80;99.90;;;;;;5056484;28;20404;-53
2023/12/16 23:00:18;;;;;;;56.58;27.15;;;3.90;99.90;;;;;;5054835;28;20021;-54
2023/12/16 23:02:43;;;;;;;61.85;27.65;;;3.90;99.90;;;;;;5053692;28;20044;-55
2023/12/16 23:05:09;;;;;;;68.93;28.77;;;3.90;99.90;;;;;;5056231;28;20028;-47
2023/12/16 23:07:35;;;;;;;58.38;29.08;;;3.90;99.90;;;;;;5061087;28;20123;-50
2023/12/16 23:10:01;;;;;;;63.60;28.45;;;3.90;1.00;;;;;;5060796;28;20033;-49
2023/12/16 23:12:27;;;;;;;57.35;29.63;;;3.90;1.00;;;;;;5049983;28;20123;-49
2023/12/16 23:14:53;;;;;;;58.22;29.65;;;3.80;1.00;;;;;;5049297;28;20032;-56
2023/12/16 23:17:18;;;;;;;69.75;31.33;;;3.90;1.00;;;;;;5049884;28;20758;-54
2023/12/16 23:19:44;;;;;;;54.53;26.88;;;3.90;1.00;;;;;;5049687;28;20021;-54
2023/12/16 23:22:10;;;;;;;59.22;27.70;;;3.90;1.00;;;;;;5049695;28;20033;-55
2023/12/16 23:24:35;;;;;;;58.25;26.38;;;3.90;99.90;;;;;;5049637;28;20047;-47
2023/12/16 23:27:01;;;;;;;61.78;26.45;;;4.00;99.90;;;;;;5049576;28;20036;-59
2023/12/16 23:29:26;;;;;;;57.78;26.60;;;4.00;97.20;;;;;;5049725;28;20040;-54
2023/12/16 23:31:52;;;;;;;63.20;27.23;;;4.00;1.00;;;;;;5050005;28;20036;-57
2023/12/16 23:34:18;;;;;;;55.58;27.67;;;4.00;99.90;;;;;;5049294;28;20396;-53
2023/12/16 23:36:43;;;;;;;52.50;25.55;;;4.10;99.90;;;;;;5049672;28;20021;-52
2023/12/16 23:39:09;;;;;;;54.28;26.85;;;4.10;1.00;;;;;;5049595;28;20040;-53
2023/12/16 23:41:35;;;;;;;47.17;25.80;;;4.10;99.90;;;;;;5049471;28;20486;-55
2023/12/16 23:44:00;;;;;;;58.38;24.70;;;4.10;99.90;;;;;;5049371;28;20029;-47
2023/12/16 23:46:27;;;;;;;48.00;24.33;;;4.10;99.90;;;;;;5049607;28;20359;-49
2023/12/16 23:48:53;;;;;;;42.10;23.35;;;4.20;24.60;;;;;;5048599;28;20059;-55
2023/12/16 23:51:18;;;;;;;49.65;23.55;;;4.20;23.40;;;;;;5049409;28;20033;-50
2023/12/16 23:53:46;;;;;;;53.88;22.88;;;4.20;1.00;;;;;;5049491;28;20029;-54
2023/12/16 23:56:13;;;;;;;53.80;24.17;;;4.20;1.00;;;;;;5049149;28;20045;-57
2023/12/16 23:58:39;;;;;;;42.08;22.40;;;4.20;1.00;;;;;;5048328;28;20060;-57
